Time;durP1;ratioP1;P1;durP2;ratioP2;P2;SDS_P1;SDS_P2;PMS_P1;PMS_P2;Temp;Humidity;BMP_temperature;BMP_pressure;BME280_temperature;BME280_humidity;BME280_pressure;Samples;Min_cycle;Max_cycle;Signal;HPM_P1;HPM_P2
2021/07/21 00:00:20;;;;;;;7.97;7.17;;;;;;;26.25;40.98;98844.34;4941054;29;20213;-86
2021/07/21 00:02:47;;;;;;;8.23;7.33;;;;;;;26.22;41.23;98837.56;4940428;29;20189;-86
2021/07/21 00:05:16;;;;;;;7.60;6.90;;;;;;;26.24;40.86;98846.19;4940140;29;20198;-86
2021/07/21 00:07:43;;;;;;;8.03;7.20;;;;;;;26.36;40.82;98841.06;4940884;29;20531;-86
2021/07/21 00:10:12;;;;;;;7.80;7.10;;;;;;;26.58;40.20;98839.03;4940843;29;20217;-86
2021/07/21 00:15:26;;;;;;;8.20;7.47;;;;;;;26.60;40.17;98842.31;4940028;29;20197;-86
2021/07/21 00:18:00;;;;;;;8.40;7.50;;;;;;;26.33;40.95;98839.63;4941266;29;20197;-86
2021/07/21 00:20:31;;;;;;;8.23;7.43;;;;;;;26.55;40.29;98842.13;4940980;29;20588;-86
2021/07/21 00:22:59;;;;;;;8.13;7.33;;;;;;;26.60;40.27;98842.31;4924061;29;20205;-86
2021/07/21 00:25:26;;;;;;;8.00;7.27;;;;;;;26.60;40.14;98833.50;4940169;29;20198;-86
2021/07/21 00:27:53;;;;;;;8.40;7.30;;;;;;;26.60;39.83;98834.28;4940714;29;20229;-86
2021/07/21 00:30:20;;;;;;;7.43;6.73;;;;;;;26.58;39.96;98836.34;4939759;29;20205;-85
2021/07/21 00:32:46;;;;;;;8.00;7.30;;;;;;;26.56;39.95;98838.41;4940845;29;20205;-85
2021/07/21 00:35:16;;;;;;;7.33;6.57;;;;;;;26.55;40.28;98831.41;4923739;29;20198;-85
2021/07/21 00:37:43;;;;;;;8.00;7.23;;;;;;;26.55;40.02;98835.97;4940487;29;20576;-86
2021/07/21 00:40:13;;;;;;;7.97;7.20;;;;;;;26.53;40.36;98828.13;4939864;29;20193;-86
2021/07/21 00:42:42;;;;;;;8.40;7.60;;;;;;;26.53;40.07;98829.97;4939657;29;20202;-86
2021/07/21 00:45:09;;;;;;;7.43;6.80;;;;;;;26.50;40.21;98828.53;4939769;29;20196;-86
2021/07/21 00:47:37;;;;;;;7.43;6.73;;;;;;;26.50;40.19;98834.69;4923713;29;20246;-86
2021/07/21 00:50:06;;;;;;;8.10;7.30;;;;;;;26.47;40.42;98835.13;4923784;29;20221;-86
2021/07/21 00:52:35;;;;;;;7.67;6.97;;;;;;;26.49;40.18;98829.56;4939400;29;20665;-86
2021/07/21 00:55:07;;;;;;;7.27;6.43;;;;;;;26.49;40.43;98827.72;4939188;29;20194;-85
2021/07/21 00:57:35;;;;;;;7.60;6.90;;;;;;;26.47;40.47;98828.97;4940072;29;20201;-85
2021/07/21 01:00:06;;;;;;;7.70;7.00;;;;;;;26.16;40.72;98830.31;4939451;29;20194;-86
2021/07/21 01:02:42;;;;;;;8.20;7.50;;;;;;;26.12;40.82;98832.56;4940030;29;20532;-86
2021/07/21 01:05:18;;;;;;;8.00;7.20;;;;;;;26.32;40.72;98829.97;4939331;29;20544;-86
2021/07/21 01:07:50;;;;;;;7.87;7.07;;;;;;;26.36;40.61;98833.88;4924590;29;20193;-85
2021/07/21 01:10:20;;;;;;;9.13;6.97;;;;;;;26.41;40.09;98819.06;4939136;29;20646;-85
2021/07/21 01:12:53;;;;;;;7.70;6.97;;;;;;;26.42;40.34;98823.38;4939394;29;20287;-85
2021/07/21 01:15:26;;;;;;;7.33;6.63;;;;;;;26.39;40.30;98815.75;4940217;29;20217;-86
2021/07/21 01:18:02;;;;;;;7.47;6.80;;;;;;;26.40;40.36;98828.09;4905097;29;20206;-85
2021/07/21 01:20:45;;;;;;;7.13;6.43;;;;;;;26.48;39.88;98820.72;4936938;29;20205;-85
2021/07/21 01:23:49;;;;;;;7.60;7.00;;;;;;;26.33;40.17;98828.94;4921073;29;20225;-85
2021/07/21 01:26:31;;;;;;;8.13;7.40;;;;;;;26.37;40.26;98818.63;4921009;29;20491;-85
2021/07/21 01:28:59;;;;;;;7.97;7.17;;;;;;;26.26;40.23;98828.09;4904522;29;20194;-85
2021/07/21 01:31:33;;;;;;;7.80;7.10;;;;;;;26.24;40.59;98824.78;4921335;29;20220;-85
2021/07/21 01:34:01;;;;;;;7.50;6.80;;;;;;;26.26;40.53;98828.09;4920260;29;20217;-85
2021/07/21 01:36:52;;;;;;;8.00;7.17;;;;;;;26.27;40.52;98819.03;4921156;29;20200;-85
2021/07/21 01:39:28;;;;;;;7.70;7.00;;;;;;;26.23;40.61;98823.16;4920181;29;20596;-85
2021/07/21 01:42:00;;;;;;;7.27;6.67;;;;;;;26.23;40.49;98822.34;4920684;29;20190;-85
2021/07/21 01:44:31;;;;;;;7.40;6.73;;;;;;;26.10;40.70;98817.72;4920826;29;20217;-85
2021/07/21 01:47:02;;;;;;;7.50;6.80;;;;;;;26.05;40.99;98818.34;4920609;29;20178;-85
2021/07/21 01:49:35;;;;;;;7.90;7.20;;;;;;;26.06;40.71;98822.69;4922490;29;20194;-85
2021/07/21 01:52:08;;;;;;;7.47;6.70;;;;;;;26.07;40.68;98818.97;4921565;29;20209;-85
2021/07/21 01:54:38;;;;;;;8.27;7.47;;;;;;;26.08;40.52;98821.44;4920852;29;20198;-85
2021/07/21 01:57:13;;;;;;;7.43;6.43;;;;;;;26.07;40.72;98818.97;4921596;29;20185;-85
2021/07/21 01:59:53;;;;;;;7.53;6.80;;;;;;;26.11;40.64;98822.91;4921342;29;20190;-86
2021/07/21 02:02:46;;;;;;;7.33;6.63;;;;;;;26.15;40.59;98826.81;4922435;29;20616;-86
2021/07/21 02:05:19;;;;;;;6.80;6.20;;;;;;;26.13;40.59;98822.66;4922636;29;20272;-86
2021/07/21 02:07:47;;;;;;;7.03;6.33;;;;;;;26.14;40.39;98835.03;4924126;29;20669;-86
2021/07/21 02:10:21;;;;;;;7.17;6.53;;;;;;;26.18;40.28;98830.97;4925272;29;20318;-86
2021/07/21 02:13:11;;;;;;;7.53;6.80;;;;;;;26.16;40.39;98833.81;4919716;29;20194;-86
2021/07/21 02:15:45;;;;;;;8.33;6.90;;;;;;;26.17;40.18;98830.13;4919769;29;20257;-86
2021/07/21 02:18:18;;;;;;;7.77;7.07;;;;;;;26.14;40.45;98835.84;4903620;29;20659;-84
2021/07/21 02:20:47;;;;;;;7.87;7.17;;;;;;;26.15;40.12;98836.69;4919369;29;20644;-84
2021/07/21 02:23:17;;;;;;;7.73;6.43;;;;;;;26.18;40.04;98825.63;4920590;29;20648;-84
2021/07/21 02:25:44;;;;;;;7.57;6.87;;;;;;;26.10;40.19;98831.09;4921103;29;20198;-84
2021/07/21 02:28:14;;;;;;;7.20;6.53;;;;;;;26.05;40.51;98829.03;4903859;29;20202;-85
2021/07/21 02:30:46;;;;;;;8.17;7.37;;;;;;;26.00;40.33;98824.31;4919578;29;20206;-85
2021/07/21 02:33:23;;;;;;;7.60;6.67;;;;;;;25.97;40.64;98829.22;4919132;29;20276;-85
2021/07/21 02:35:51;;;;;;;8.00;7.13;;;;;;;25.90;40.55;98823.84;4919584;29;20524;-85
2021/07/21 02:38:18;;;;;;;7.80;7.10;;;;;;;25.90;40.66;98824.69;4920134;29;20261;-85
2021/07/21 02:40:51;;;;;;;8.13;7.00;;;;;;;25.89;40.51;98825.72;4920132;29;20197;-85
2021/07/21 02:43:38;;;;;;;7.27;6.67;;;;;;;25.78;40.80;98826.28;4920504;29;20206;-85
2021/07/21 02:46:06;;;;;;;6.90;6.10;;;;;;;25.76;40.84;98821.13;4920042;29;20198;-84
2021/07/21 02:48:33;;;;;;;7.70;6.73;;;;;;;25.71;40.88;98828.09;4905948;29;20537;-84
2021/07/21 02:51:07;;;;;;;7.13;6.53;;;;;;;25.69;41.05;98828.31;4920792;29;20202;-85
2021/07/21 02:53:45;;;;;;;8.60;7.40;;;;;;;25.82;40.77;98824.84;4919271;29;20265;-85
2021/07/21 02:56:35;;;;;;;7.10;6.50;;;;;;;25.79;40.78;98827.94;4920285;29;20185;-84
2021/07/21 02:59:13;;;;;;;7.40;6.73;;;;;;;25.70;41.09;98835.31;4921148;29;20227;-85
2021/07/21 03:01:48;;;;;;;7.33;6.50;;;;;;;25.81;40.70;98831.22;4904489;29;20213;-85
2021/07/21 03:04:24;;;;;;;7.07;6.43;;;;;;;25.74;40.84;98833.06;4919893;29;20284;-85
2021/07/21 03:07:01;;;;;;;7.83;6.97;;;;;;;25.67;41.16;98825.03;4920758;29;20578;-85
2021/07/21 03:09:35;;;;;;;7.37;6.67;;;;;;;25.68;40.99;98832.00;4921527;29;20176;-85
2021/07/21 03:12:08;;;;;;;7.47;6.77;;;;;;;25.69;41.03;98839.00;4919621;29;20559;-85
2021/07/21 03:14:54;;;;;;;7.57;6.63;;;;;;;25.83;40.67;98831.03;4920525;29;20273;-85
2021/07/21 03:17:24;;;;;;;7.13;6.53;;;;;;;25.82;40.83;98834.75;4920809;29;20229;-85
2021/07/21 03:19:56;;;;;;;6.93;6.33;;;;;;;25.82;40.60;98837.41;4921700;29;20569;-85
2021/07/21 03:22:26;;;;;;;7.80;7.03;;;;;;;25.80;40.58;98834.94;4905530;29;20194;-85
2021/07/21 03:25:07;;;;;;;7.37;6.67;;;;;;;25.71;40.97;98839.63;4921979;29;20190;-85
2021/07/21 03:27:42;;;;;;;7.00;6.40;;;;;;;25.80;40.54;98834.94;4909725;29;20651;-85
2021/07/21 03:30:18;;;;;;;7.00;6.30;;;;;;;25.69;41.04;98843.50;4933312;29;20225;-85
2021/07/21 03:32:53;;;;;;;7.30;6.60;;;;;;;25.70;40.66;98835.31;4940074;29;20204;-84
2021/07/21 03:35:24;;;;;;;7.37;6.60;;;;;;;25.72;40.51;98837.75;4942839;29;20190;-85
2021/07/21 03:37:54;;;;;;;9.10;6.57;;;;;;;25.76;40.56;98845.19;4926218;29;20274;-84
2021/07/21 03:40:24;;;;;;;7.40;6.70;;;;;;;25.69;40.53;98841.69;4922705;29;20225;-84
2021/07/21 03:42:52;;;;;;;7.27;6.67;;;;;;;25.67;40.84;98843.72;4924207;29;20206;-84
2021/07/21 03:45:27;;;;;;;6.73;6.13;;;;;;;25.67;40.64;98834.88;4907255;29;20202;-84
2021/07/21 03:47:56;;;;;;;6.90;6.30;;;;;;;25.78;40.54;98843.13;4907553;29;20206;-84
2021/07/21 03:50:29;;;;;;;7.87;7.17;;;;;;;25.77;40.42;98848.69;4924466;29;20339;-84
2021/07/21 03:52:59;;;;;;;7.43;6.73;;;;;;;25.80;40.16;98835.75;4929344;29;20237;-84
2021/07/21 03:55:30;;;;;;;6.93;6.10;;;;;;;25.80;40.26;98846.44;4908692;29;20194;-85
2021/07/21 03:58:08;;;;;;;7.03;6.43;;;;;;;25.79;40.42;98834.09;4924149;29;20197;-85
2021/07/21 04:00:48;;;;;;;7.43;6.50;;;;;;;25.80;40.15;98835.75;4923859;29;20216;-84
2021/07/21 04:03:21;;;;;;;7.87;6.57;;;;;;;25.82;40.14;98837.41;4923540;29;20210;-84
2021/07/21 04:06:01;;;;;;;6.97;6.23;;;;;;;25.79;40.13;98844.78;4924914;29;20205;-84
2021/07/21 04:08:45;;;;;;;6.97;6.37;;;;;;;25.79;40.17;98847.47;4922929;29;20202;-84
2021/07/21 04:11:17;;;;;;;7.90;6.43;;;;;;;25.78;40.08;98842.31;4907058;29;20245;-84
2021/07/21 04:13:43;;;;;;;6.77;5.97;;;;;;;25.77;40.28;98857.53;4922923;29;20703;-84
2021/07/21 04:16:27;;;;;;;6.60;6.07;;;;;;;25.80;40.16;98856.31;4923630;29;20213;-84
2021/07/21 04:18:54;;;;;;;7.33;6.60;;;;;;;25.77;40.04;98862.88;4922960;29;20202;-84
2021/07/21 04:21:22;;;;;;;6.90;6.23;;;;;;;25.73;40.33;98861.63;4922733;29;20210;-84
2021/07/21 04:23:50;;;;;;;6.77;6.17;;;;;;;25.72;40.37;98870.69;4922953;29;20285;-84
2021/07/21 04:26:17;;;;;;;6.60;6.00;;;;;;;25.74;40.36;98870.50;4924448;29;20632;-84
2021/07/21 04:28:45;;;;;;;6.57;5.97;;;;;;;25.76;39.92;98866.56;4929557;29;20217;-84
2021/07/21 04:31:14;;;;;;;7.03;6.33;;;;;;;25.75;40.06;98864.94;4938773;29;20202;-83
2021/07/21 04:33:43;;;;;;;7.33;6.63;;;;;;;25.80;40.08;98869.69;4938242;29;20267;-83
2021/07/21 04:36:12;;;;;;;7.07;6.20;;;;;;;25.82;40.24;98874.84;4938287;29;20653;-83
2021/07/21 04:38:44;;;;;;;8.87;6.43;;;;;;;25.79;40.21;98876.88;4938955;29;20199;-83
2021/07/21 04:41:29;;;;;;;6.90;6.20;;;;;;;25.75;40.08;98869.47;4951979;29;20268;-83
2021/07/21 04:44:16;;;;;;;6.60;6.00;;;;;;;25.76;40.00;98877.25;4938133;29;20223;-85
2021/07/21 04:46:58;;;;;;;6.33;5.73;;;;;;;25.83;39.84;98879.97;4937232;29;20254;-83
2021/07/21 04:49:28;;;;;;;6.63;6.03;;;;;;;25.94;39.93;98883.91;4922544;29;20213;-85
2021/07/21 04:52:02;;;;;;;7.40;6.60;;;;;;;25.86;39.75;98886.78;4938234;29;20214;-84
2021/07/21 04:54:32;;;;;;;6.50;5.90;;;;;;;25.86;39.97;98886.78;4937448;29;20225;-84
2021/07/21 04:57:01;;;;;;;6.50;5.90;;;;;;;25.85;39.97;98888.63;4939759;29;20246;-84
2021/07/21 04:59:37;;;;;;;6.97;6.27;;;;;;;25.89;39.83;98897.91;4939253;29;20190;-83
2021/07/21 05:02:05;;;;;;;6.90;6.20;;;;;;;25.92;39.63;98894.00;4937594;29;20297;-84
2021/07/21 05:04:35;;;;;;;6.80;6.10;;;;;;;25.91;39.91;98895.03;4936054;29;20190;-84
2021/07/21 05:07:17;;;;;;;6.97;6.27;;;;;;;25.92;39.57;98902.84;4932085;29;20217;-85
2021/07/21 05:09:47;;;;;;;8.33;6.77;;;;;;;25.89;39.49;98907.75;4927425;29;20194;-85
2021/07/21 05:12:16;;;;;;;6.97;6.27;;;;;;;25.86;39.12;98910.84;4912650;29;20228;-85
2021/07/21 05:14:52;;;;;;;7.30;6.60;;;;;;;25.85;39.49;98907.31;4926459;29;20202;-85
2021/07/21 05:17:33;;;;;;;7.23;5.77;;;;;;;25.85;39.53;98911.88;4926248;29;20249;-85
2021/07/21 05:20:06;;;;;;;6.67;6.07;;;;;;;25.94;39.64;98916.00;4927186;29;20253;-84
2021/07/21 05:22:45;;;;;;;6.70;6.10;;;;;;;25.95;39.57;98917.66;4925363;29;20265;-85
2021/07/21 05:25:13;;;;;;;6.30;5.70;;;;;;;26.03;39.51;98922.84;4926771;29;20198;-84
2021/07/21 05:27:57;;;;;;;6.67;6.10;;;;;;;26.05;39.75;98917.28;4912274;29;20201;-84
2021/07/21 05:30:24;;;;;;;6.90;6.30;;;;;;;26.07;40.03;98921.41;4924704;29;20265;-85
2021/07/21 05:33:00;;;;;;;7.60;6.90;;;;;;;26.03;39.62;98920.16;4922577;29;20197;-85
2021/07/21 05:35:27;;;;;;;7.40;6.70;;;;;;;25.90;39.39;98920.09;4925393;29;20193;-84
2021/07/21 05:38:05;;;;;;;8.30;7.23;;;;;;;25.75;38.87;98923.72;4925562;29;20197;-84
2021/07/21 05:40:32;;;;;;;8.37;7.17;;;;;;;25.62;38.76;98920.97;4923915;29;20202;-84
2021/07/21 05:43:04;;;;;;;8.00;7.20;;;;;;;25.50;38.98;98921.56;4923839;29;20187;-84
2021/07/21 05:45:37;;;;;;;8.80;7.13;;;;;;;25.43;39.02;98925.16;4909213;29;20261;-85
2021/07/21 05:48:04;;;;;;;7.40;6.70;;;;;;;25.37;38.95;98926.75;4924764;29;20209;-85
2021/07/21 05:50:50;;;;;;;7.47;6.77;;;;;;;25.35;39.01;98928.81;4923894;29;20221;-85
2021/07/21 05:53:18;;;;;;;8.53;6.90;;;;;;;25.29;39.24;98930.41;4922392;29;20209;-84
2021/07/21 05:55:46;;;;;;;9.90;6.97;;;;;;;25.28;39.11;98926.09;4922725;29;20213;-84
2021/07/21 05:58:17;;;;;;;7.97;7.17;;;;;;;25.27;39.05;98931.63;4923835;29;20255;-84
2021/07/21 06:00:45;;;;;;;7.97;7.17;;;;;;;25.27;39.33;98923.59;4927276;29;20198;-84
2021/07/21 06:03:20;;;;;;;8.57;7.37;;;;;;;25.17;39.34;98927.44;4917664;29;20201;-84
2021/07/21 06:06:11;;;;;;;7.10;6.40;;;;;;;25.15;39.25;98924.13;4915389;29;20221;-84
2021/07/21 06:08:58;;;;;;;7.97;7.13;;;;;;;25.16;39.50;98924.97;4923356;29;20202;-85
2021/07/21 06:11:28;;;;;;;8.63;7.70;;;;;;;25.16;39.38;98933.78;4923575;29;20210;-84
2021/07/21 06:13:59;;;;;;;8.27;7.27;;;;;;;25.21;39.58;98938.56;4921768;29;20194;-85
2021/07/21 06:16:29;;;;;;;8.27;7.33;;;;;;;25.20;39.24;98939.56;4925765;29;20227;-84
2021/07/21 06:18:57;;;;;;;10.20;7.47;;;;;;;25.22;39.31;98940.19;4922163;29;20594;-86
2021/07/21 06:21:24;;;;;;;7.40;6.70;;;;;;;25.20;39.53;98940.41;4920140;29;20230;-85
2021/07/21 06:24:19;;;;;;;7.73;6.73;;;;;;;25.23;39.06;98941.84;4919469;29;20209;-85
2021/07/21 06:26:48;;;;;;;8.57;6.70;;;;;;;25.23;38.91;98942.69;4921539;29;20194;-85
2021/07/21 06:29:35;;;;;;;7.43;6.73;;;;;;;25.23;39.18;98945.34;4920715;29;20202;-85
2021/07/21 06:32:02;;;;;;;6.93;6.27;;;;;;;25.28;38.98;98955.47;4919149;29;20225;-85
2021/07/21 06:34:29;;;;;;;7.33;6.60;;;;;;;25.26;39.06;98956.66;4919369;29;20198;-85
2021/07/21 06:37:02;;;;;;;7.67;6.63;;;;;;;25.25;39.18;98957.69;4920877;29;20218;-85
2021/07/21 06:39:29;;;;;;;7.70;6.57;;;;;;;25.27;39.00;98958.31;4919919;29;20257;-85
2021/07/21 06:41:57;;;;;;;7.23;6.53;;;;;;;25.26;39.35;98956.66;4920331;29;20230;-85
2021/07/21 06:44:23;;;;;;;7.77;6.03;;;;;;;25.27;39.30;98958.31;4920548;29;20281;-85
2021/07/21 06:47:07;;;;;;;7.80;6.73;;;;;;;25.30;39.40;98971.28;4919908;29;20208;-85
2021/07/21 06:49:36;;;;;;;7.63;6.50;;;;;;;25.33;39.23;98974.41;4920295;29;20209;-85
2021/07/21 06:52:03;;;;;;;6.93;6.23;;;;;;;25.31;39.45;98971.09;4918584;29;20316;-86
2021/07/21 06:54:36;;;;;;;7.67;6.70;;;;;;;25.31;39.57;98970.25;4905510;29;20197;-85
2021/07/21 06:57:34;;;;;;;7.97;6.60;;;;;;;25.39;39.40;98983.50;4919690;29;20209;-85
2021/07/21 07:00:33;;;;;;;6.97;6.10;;;;;;;25.45;39.32;98984.56;4919339;29;20213;-84
2021/07/21 07:03:03;;;;;;;6.87;6.17;;;;;;;25.41;39.53;98983.28;4920231;29;20212;-85
2021/07/21 07:05:49;;;;;;;7.77;6.23;;;;;;;25.42;39.56;98979.63;4924109;29;20197;-85
2021/07/21 07:08:54;;;;;;;7.20;6.27;;;;;;;25.40;39.48;98979.81;4922920;29;20548;-85
2021/07/21 07:11:39;;;;;;;6.93;6.30;;;;;;;25.42;39.38;98980.44;4909181;29;20212;-85
2021/07/21 07:14:05;;;;;;;6.90;6.20;;;;;;;25.41;39.48;98978.78;4923661;29;20256;-85
2021/07/21 07:16:34;;;;;;;8.67;6.00;;;;;;;25.40;39.61;98981.63;4924572;29;20230;-85
2021/07/21 07:19:02;;;;;;;6.23;5.63;;;;;;;25.42;39.58;98976.94;4922292;29;20202;-85
2021/07/21 07:21:29;;;;;;;7.77;5.67;;;;;;;25.44;39.54;98970.38;4922025;29;20201;-85
2021/07/21 07:23:57;;;;;;;8.20;5.67;;;;;;;25.43;39.63;98976.75;4923258;29;20186;-85
2021/07/21 07:26:24;;;;;;;6.83;6.23;;;;;;;25.42;39.67;98977.75;4921785;29;20194;-84
2021/07/21 07:28:54;;;;;;;7.33;5.90;;;;;;;25.44;39.68;98973.03;4922107;29;20212;-85
2021/07/21 07:31:20;;;;;;;7.60;5.67;;;;;;;25.46;39.70;98971.00;4922958;29;20217;-85
2021/07/21 07:33:47;;;;;;;12.03;6.47;;;;;;;25.47;39.39;98963.81;4922865;29;20205;-84
2021/07/21 07:36:14;;;;;;;6.70;6.00;;;;;;;25.47;39.57;98972.66;4925470;29;20240;-84
2021/07/21 07:38:42;;;;;;;7.57;6.77;;;;;;;25.49;39.87;98970.66;4924305;29;20265;-85
2021/07/21 07:41:11;;;;;;;6.50;5.90;;;;;;;25.62;39.54;98967.25;4923265;29;20545;-85
2021/07/21 07:43:39;;;;;;;8.73;6.23;;;;;;;25.69;39.54;98969.97;4925574;29;20197;-85
2021/07/21 07:46:07;;;;;;;6.53;5.80;;;;;;;25.73;39.37;98962.38;4925552;29;20552;-84
2021/07/21 07:48:34;;;;;;;7.70;5.50;;;;;;;25.80;39.03;98964.06;4927677;29;20187;-84
2021/07/21 07:51:02;;;;;;;6.00;5.40;;;;;;;25.82;39.19;98955.84;4925589;29;20273;-87
2021/07/21 07:53:28;;;;;;;6.23;5.50;;;;;;;25.84;38.96;98964.50;4940692;29;20194;-85
2021/07/21 07:55:55;;;;;;;7.00;6.30;;;;;;;25.86;39.03;98962.44;4925644;29;20275;-85
2021/07/21 07:58:23;;;;;;;8.03;5.90;;;;;;;25.86;39.26;98957.09;4925861;29;20208;-85
2021/07/21 08:00:52;;;;;;;6.27;5.67;;;;;;;25.85;39.29;98958.13;4925090;29;20261;-84
2021/07/21 08:03:19;;;;;;;5.93;5.30;;;;;;;25.87;39.45;98955.25;4941457;29;20221;-86
2021/07/21 08:05:46;;;;;;;6.33;5.73;;;;;;;25.88;39.15;98965.75;4928293;29;20202;-84
2021/07/21 08:08:13;;;;;;;5.93;5.33;;;;;;;25.90;39.51;98957.53;4911535;29;20216;-86
2021/07/21 08:10:39;;;;;;;6.53;5.50;;;;;;;25.94;39.36;98953.44;4926231;29;20624;-85
2021/07/21 08:13:06;;;;;;;6.13;5.33;;;;;;;25.96;39.33;98958.59;4926106;29;20210;-85
2021/07/21 08:15:32;;;;;;;6.63;5.97;;;;;;;25.97;39.23;98961.06;4926416;29;20224;-86
2021/07/21 08:18:00;;;;;;;5.80;5.20;;;;;;;25.99;39.01;98961.72;4927226;29;20186;-84
2021/07/21 08:20:26;;;;;;;7.00;5.40;;;;;;;26.01;39.17;98965.00;4926531;29;20211;-84
2021/07/21 08:22:53;;;;;;;6.03;5.50;;;;;;;25.99;39.29;98961.72;4924582;29;20194;-85
2021/07/21 08:25:21;;;;;;;5.73;5.13;;;;;;;26.02;39.66;98965.81;4921704;29;20197;-85
2021/07/21 08:27:52;;;;;;;6.90;5.30;;;;;;;26.02;39.48;98963.97;4921144;29;20202;-86
2021/07/21 08:30:19;;;;;;;5.73;5.13;;;;;;;26.07;39.26;98963.41;4904901;29;20237;-85
2021/07/21 08:32:48;;;;;;;6.90;6.20;;;;;;;26.03;39.60;98965.63;4920828;29;20300;-85
2021/07/21 08:35:18;;;;;;;5.60;5.10;;;;;;;26.08;39.34;98955.16;4920836;29;20199;-86
2021/07/21 08:37:44;;;;;;;5.63;5.13;;;;;;;26.07;39.37;98968.75;4921357;29;20202;-86
2021/07/21 08:40:12;;;;;;;6.10;5.47;;;;;;;26.08;39.34;98957.84;4924978;29;20194;-86
2021/07/21 08:42:39;;;;;;;6.30;5.70;;;;;;;26.12;39.69;98960.09;4905066;29;20194;-87
2021/07/21 08:45:07;;;;;;;7.63;6.17;;;;;;;26.14;39.32;98958.88;4920908;29;20198;-87
2021/07/21 08:47:34;;;;;;;6.40;5.80;;;;;;;26.17;39.62;98960.34;4921436;29;20202;-87
2021/07/21 08:50:04;;;;;;;6.93;5.97;;;;;;;26.18;39.30;98954.00;4920324;29;20205;-88
2021/07/21 08:52:31;;;;;;;6.03;5.53;;;;;;;26.20;39.55;98957.31;4920495;29;20240;-88
2021/07/21 08:54:58;;;;;;;6.20;5.50;;;;;;;26.23;39.60;98956.09;4920533;29;20200;-87
2021/07/21 08:57:30;;;;;;;5.83;5.23;;;;;;;26.24;39.29;98950.53;4920296;29;20220;-88
2021/07/21 08:59:58;;;;;;;6.23;5.73;;;;;;;26.25;39.44;98962.88;4921718;29;20190;-88
2021/07/21 09:02:26;;;;;;;6.53;5.93;;;;;;;26.26;39.54;98963.72;4904658;29;20627;-88
2021/07/21 09:04:53;;;;;;;6.53;5.50;;;;;;;26.28;39.57;98962.47;4904567;29;20217;-88
2021/07/21 09:07:20;;;;;;;6.87;5.90;;;;;;;26.41;39.51;98968.91;4905026;29;20261;-88
2021/07/21 09:10:04;;;;;;;6.53;5.60;;;;;;;26.41;39.37;98963.53;4920277;29;20194;-89
2021/07/21 09:12:32;;;;;;;6.40;5.80;;;;;;;26.41;39.23;98966.22;4921369;29;20209;-88
2021/07/21 09:14:59;;;;;;;7.40;5.77;;;;;;;26.44;39.22;98968.47;4923279;29;20201;-87
2021/07/21 09:17:27;;;;;;;6.20;5.60;;;;;;;26.45;39.14;98964.78;4921843;29;20257;-89
2021/07/21 09:19:54;;;;;;;6.30;5.70;;;;;;;26.50;39.14;98965.03;4922580;29;20198;-89
2021/07/21 09:22:34;;;;;;;6.13;5.53;;;;;;;26.45;39.17;98970.13;4934068;29;20190;-88
2021/07/21 09:25:18;;;;;;;5.97;5.47;;;;;;;26.48;39.35;98964.41;4940662;29;20182;-87
2021/07/21 09:27:48;;;;;;;5.93;5.43;;;;;;;26.49;39.47;98966.06;4922268;29;20198;-86
2021/07/21 09:30:18;;;;;;;6.93;6.03;;;;;;;26.62;39.21;98965.25;4941387;29;20166;-88
2021/07/21 09:33:01;;;;;;;6.90;6.17;;;;;;;26.66;39.09;98963.81;4939957;29;20218;-89
2021/07/21 09:35:30;;;;;;;6.97;6.17;;;;;;;26.74;38.86;98957.44;4940692;29;20262;-85
2021/07/21 09:37:59;;;;;;;6.43;5.83;;;;;;;26.67;39.03;98964.66;4919685;29;20202;-86
2021/07/21 09:40:26;;;;;;;7.00;6.30;;;;;;;26.71;38.83;98960.53;4919321;29;20289;-86
2021/07/21 09:42:53;;;;;;;6.47;5.87;;;;;;;26.49;39.36;98969.53;4922763;29;20209;-87
2021/07/21 09:45:20;;;;;;;6.47;5.70;;;;;;;26.52;39.16;98962.13;4935183;29;20225;-88
2021/07/21 09:47:55;;;;;;;6.70;6.10;;;;;;;26.49;39.18;98974.09;4903369;29;20197;-87
2021/07/21 09:50:29;;;;;;;7.93;6.17;;;;;;;26.83;38.61;98972.31;4903256;29;20194;-88
2021/07/21 09:53:05;;;;;;;6.80;6.07;;;;;;;26.88;38.24;98967.19;4919051;29;20220;-88
2021/07/21 09:55:34;;;;;;;6.67;6.07;;;;;;;26.93;38.12;98962.03;4920280;29;20265;-86
2021/07/21 09:58:06;;;;;;;6.20;5.70;;;;;;;26.90;38.37;98962.44;4919199;29;20194;-87
2021/07/21 10:00:40;;;;;;;8.57;6.23;;;;;;;26.61;38.99;98961.75;4921048;29;20233;-86
2021/07/21 10:03:11;;;;;;;6.63;6.00;;;;;;;26.60;38.83;98960.09;4920589;29;20217;-86
2021/07/21 10:05:54;;;;;;;6.53;5.93;;;;;;;26.83;38.43;98961.59;4921054;29;20206;-87
2021/07/21 10:08:47;;;;;;;7.43;6.33;;;;;;;26.94;38.36;98968.22;4920376;29;20205;-86
2021/07/21 10:11:26;;;;;;;9.40;6.20;;;;;;;26.93;38.30;98970.06;4917386;29;20555;-86
2021/07/21 10:13:55;;;;;;;7.47;6.10;;;;;;;26.96;38.42;98966.16;4920698;29;20640;-87
2021/07/21 10:16:40;;;;;;;7.30;6.60;;;;;;;27.00;38.17;98966.59;4903991;29;20632;-85
2021/07/21 10:19:11;;;;;;;6.80;5.97;;;;;;;27.03;37.98;98967.00;4919676;29;20197;-85
2021/07/21 10:21:41;;;;;;;6.70;6.10;;;;;;;27.04;38.08;98970.50;4919251;29;20214;-86
2021/07/21 10:24:08;;;;;;;7.47;6.30;;;;;;;27.09;38.11;98965.34;4918354;29;20628;-85
2021/07/21 10:26:36;;;;;;;7.13;6.53;;;;;;;27.03;38.13;98966.19;4918285;29;20634;-85
2021/07/21 10:29:03;;;;;;;7.50;6.70;;;;;;;27.05;38.41;98964.13;4918415;29;20216;-86
2021/07/21 10:31:30;;;;;;;6.67;5.83;;;;;;;27.08;38.19;98966.38;4918850;29;20198;-86
2021/07/21 10:33:57;;;;;;;6.83;6.23;;;;;;;27.09;38.17;98970.69;4919312;29;20232;-86
2021/07/21 10:36:24;;;;;;;7.40;6.70;;;;;;;27.13;38.16;98958.56;4903990;29;20225;-86
2021/07/21 10:38:51;;;;;;;8.23;6.50;;;;;;;27.10;38.13;98960.81;4919741;29;20208;-86
2021/07/21 10:41:19;;;;;;;8.27;6.30;;;;;;;27.12;38.10;98958.75;4904311;29;20201;-87
2021/07/21 10:43:52;;;;;;;7.33;6.63;;;;;;;27.12;38.05;98962.28;4923011;29;20190;-86
2021/07/21 10:46:33;;;;;;;7.53;6.50;;;;;;;27.11;37.80;98962.47;4938619;29;20225;-86
2021/07/21 10:49:28;;;;;;;7.00;6.40;;;;;;;27.18;37.70;98960.59;4922482;29;20297;-86
2021/07/21 10:54:49;;;;;;;6.90;6.20;;;;;;;27.17;37.82;98965.16;4919436;29;20213;-85
2021/07/21 11:00:20;;;;;;;8.77;7.13;;;;;;;27.14;37.74;98957.53;4917831;29;20203;-87
2021/07/21 11:02:49;;;;;;;9.20;6.10;;;;;;;27.13;38.08;98950.53;4919249;29;20185;-88
2021/07/21 11:05:39;;;;;;;8.43;6.87;;;;;;;27.12;37.72;98956.09;4918002;29;20212;-87
2021/07/21 11:08:15;;;;;;;7.27;6.57;;;;;;;27.11;38.13;98947.25;4918555;29;20198;-86
2021/07/21 11:10:44;;;;;;;7.77;6.70;;;;;;;27.12;38.15;98948.88;4918053;29;20284;-86
2021/07/21 11:13:13;;;;;;;7.87;6.53;;;;;;;27.14;38.45;98946.81;4918397;29;20624;-86
2021/07/21 11:15:45;;;;;;;6.53;5.87;;;;;;;27.17;38.18;98946.41;4918720;29;20643;-86
2021/07/21 11:18:24;;;;;;;7.17;5.77;;;;;;;27.20;38.14;98945.97;4919193;29;20183;-85
2021/07/21 11:21:05;;;;;;;7.87;6.23;;;;;;;27.17;37.69;98935.69;4918352;29;20617;-86
2021/07/21 11:23:46;;;;;;;7.13;6.40;;;;;;;27.14;38.05;98930.75;4918409;29;20190;-87
2021/07/21 11:26:36;;;;;;;7.60;6.43;;;;;;;27.12;38.31;98934.66;4934255;29;20190;-86
2021/07/21 11:29:24;;;;;;;8.40;6.53;;;;;;;27.10;38.20;98934.88;4918039;29;20202;-87
2021/07/21 11:31:54;;;;;;;7.67;6.97;;;;;;;27.11;38.20;98931.16;4918044;29;20668;-87
2021/07/21 11:34:37;;;;;;;7.53;6.77;;;;;;;26.92;38.69;98927.44;4918937;29;20214;-87
2021/07/21 11:37:15;;;;;;;7.40;6.47;;;;;;;26.87;39.09;98925.38;4918172;29;20202;-87
2021/07/21 11:39:50;;;;;;;9.27;7.07;;;;;;;27.02;38.49;98927.03;4918402;29;20246;-86
2021/07/21 11:42:23;;;;;;;7.40;6.60;;;;;;;27.14;38.67;98920.03;4920262;29;20512;-87
2021/07/21 11:44:51;;;;;;;7.60;6.90;;;;;;;27.19;38.21;98922.09;4918265;29;20216;-87
2021/07/21 11:47:18;;;;;;;8.43;6.63;;;;;;;27.19;38.45;98920.22;4902297;29;20194;-86
2021/07/21 11:49:51;;;;;;;9.03;7.37;;;;;;;27.19;38.35;98922.09;4918168;29;20198;-87
2021/07/21 11:52:24;;;;;;;7.47;6.77;;;;;;;27.12;38.43;98915.91;4921662;29;20257;-87
2021/07/21 11:54:52;;;;;;;7.40;6.33;;;;;;;27.18;38.51;98907.03;4922124;29;20194;-85
2021/07/21 11:57:25;;;;;;;8.10;7.20;;;;;;;27.20;38.76;98913.84;4905908;29;20485;-85
2021/07/21 11:59:57;;;;;;;7.97;7.20;;;;;;;27.23;38.51;98914.44;4905718;29;20206;-85
2021/07/21 12:02:25;;;;;;;8.20;6.83;;;;;;;27.30;38.27;98909.91;4905433;29;20186;-85
2021/07/21 12:04:54;;;;;;;7.50;6.47;;;;;;;27.32;38.42;98913.22;4921072;29;20205;-86
2021/07/21 12:07:23;;;;;;;7.97;7.07;;;;;;;27.34;38.35;98914.66;4921982;29;20516;-85